Time;durP1;ratioP1;P1;durP2;ratioP2;P2;SDS_P1;SDS_P2;PMS_P1;PMS_P2;Temp;Humidity;BMP_temperature;BMP_pressure;BME280_temperature;BME280_humidity;BME280_pressure;Samples;Min_cycle;Max_cycle;Signal;HPM_P1;HPM_P2
2022/06/15 00:01:59;;;;;;;3.28;1.40;;;18.10;91.90;;;;;;4099164;28;20118;-69
2022/06/15 00:04:02;;;;;;;2.33;1.20;;;18.10;91.90;;;;;;4097300;28;20399;-69
2022/06/15 00:06:04;;;;;;;4.30;1.40;;;18.10;92.00;;;;;;4096565;28;20113;-69
2022/06/15 00:08:06;;;;;;;3.38;1.45;;;18.20;91.90;;;;;;4096394;28;20028;-69
2022/06/15 00:10:07;;;;;;;2.03;1.42;;;18.20;91.80;;;;;;4096554;28;25341;-70
2022/06/15 00:12:08;;;;;;;3.20;1.45;;;18.20;92.10;;;;;;4097211;28;20046;-69
2022/06/15 00:14:29;;;;;;;4.35;1.27;;;18.30;92.00;;;;;;4097389;28;20051;-69
2022/06/15 00:16:29;;;;;;;3.20;1.42;;;18.30;92.40;;;;;;4093366;28;20065;-69
2022/06/15 00:18:30;;;;;;;1.80;0.98;;;18.30;91.90;;;;;;4095928;28;20035;-69
2022/06/15 00:20:31;;;;;;;3.70;1.52;;;18.30;92.20;;;;;;4099059;28;20035;-70
2022/06/15 00:22:31;;;;;;;2.83;1.40;;;18.30;92.30;;;;;;4096681;28;20111;-68
2022/06/15 00:24:32;;;;;;;4.82;1.73;;;18.30;92.70;;;;;;4097290;28;20035;-68
2022/06/15 00:26:33;;;;;;;2.63;1.20;;;18.30;92.70;;;;;;4096679;28;20036;-69
2022/06/15 00:28:35;;;;;;;3.25;1.90;;;18.30;92.40;;;;;;4085215;29;20115;-69
2022/06/15 00:30:35;;;;;;;4.43;1.70;;;18.30;92.20;;;;;;4095126;28;20035;-69
2022/06/15 00:32:36;;;;;;;3.72;1.73;;;18.20;91.70;;;;;;4097158;28;20047;-69
2022/06/15 00:34:36;;;;;;;5.40;1.63;;;18.20;91.80;;;;;;4096396;28;20134;-69
2022/06/15 00:36:37;;;;;;;4.63;1.63;;;18.20;92.00;;;;;;4095837;28;20042;-69
2022/06/15 00:38:41;;;;;;;6.22;1.55;;;18.20;92.20;;;;;;4095355;28;20050;-69
2022/06/15 00:40:41;;;;;;;3.85;1.45;;;18.10;92.90;;;;;;4095675;28;20035;-69
2022/06/15 00:42:42;;;;;;;3.13;1.50;;;18.20;93.40;;;;;;4097135;28;20082;-69
2022/06/15 00:44:43;;;;;;;4.22;1.52;;;18.20;93.20;;;;;;4098857;28;20031;-69
2022/06/15 00:46:45;;;;;;;3.88;1.67;;;18.20;92.90;;;;;;4096207;28;20506;-70
2022/06/15 00:48:48;;;;;;;4.57;1.40;;;18.20;93.20;;;;;;4096067;28;20031;-69
2022/06/15 00:50:50;;;;;;;2.13;1.13;;;18.20;93.50;;;;;;4095404;28;20032;-69
2022/06/15 00:52:55;;;;;;;7.53;1.73;;;18.20;93.40;;;;;;4098792;28;20486;-69
2022/06/15 00:54:56;;;;;;;4.88;1.83;;;18.10;93.60;;;;;;4096503;28;20047;-69
2022/06/15 00:56:57;;;;;;;6.00;1.92;;;18.10;93.30;;;;;;4095151;28;20502;-69
2022/06/15 00:59:07;;;;;;;4.38;1.70;;;18.10;93.40;;;;;;4095364;28;20031;-69
2022/06/15 01:01:07;;;;;;;11.55;1.98;;;18.10;93.20;;;;;;4094390;28;20035;-69
2022/06/15 01:03:11;;;;;;;4.93;1.88;;;18.00;93.20;;;;;;4096068;28;20372;-69
2022/06/15 01:05:16;;;;;;;3.92;1.75;;;18.00;93.30;;;;;;4095012;28;20175;-70
2022/06/15 01:07:27;;;;;;;4.50;1.52;;;18.00;93.40;;;;;;4096062;29;20410;-69
2022/06/15 01:09:32;;;;;;;2.47;1.38;;;17.90;93.30;;;;;;4094819;28;20059;-69
2022/06/15 01:11:50;;;;;;;3.35;1.50;;;17.90;93.20;;;;;;4094574;28;20598;-69
2022/06/15 01:14:04;;;;;;;3.38;1.55;;;17.90;93.20;;;;;;4096028;28;20055;-69
2022/06/15 01:16:43;;;;;;;5.05;2.10;;;17.80;93.40;;;;;;4099819;28;20034;-69
2022/06/15 01:19:01;;;;;;;3.50;1.65;;;17.80;93.60;;;;;;4064042;28;20441;-69
2022/06/15 01:21:30;;;;;;;3.60;1.63;;;17.80;93.60;;;;;;4095047;28;20099;-69
2022/06/15 01:23:36;;;;;;;3.35;1.50;;;17.80;93.60;;;;;;4096158;28;20111;-69
2022/06/15 01:25:52;;;;;;;3.83;1.35;;;17.80;93.70;;;;;;4095118;28;20058;-69
2022/06/15 01:28:24;;;;;;;2.38;1.60;;;17.80;94.00;;;;;;4094894;28;20039;-69
2022/06/15 01:30:31;;;;;;;4.85;1.70;;;17.80;93.70;;;;;;4093527;28;20611;-69
2022/06/15 01:32:41;;;;;;;5.68;1.70;;;17.70;93.20;;;;;;4096583;28;20027;-69
2022/06/15 01:34:49;;;;;;;3.72;1.55;;;17.70;93.90;;;;;;4095969;28;20372;-69
2022/06/15 01:37:08;;;;;;;5.13;1.85;;;17.70;93.90;;;;;;4082224;29;20040;-69
2022/06/15 01:39:34;;;;;;;4.32;1.73;;;17.70;94.40;;;;;;4095287;28;20028;-69
2022/06/15 01:41:57;;;;;;;6.05;1.90;;;17.70;94.10;;;;;;4095629;28;20039;-68
2022/06/15 01:44:13;;;;;;;5.75;1.58;;;17.60;94.10;;;;;;4099230;28;20030;-69
2022/06/15 01:46:13;;;;;;;4.95;1.50;;;17.60;94.40;;;;;;4096703;28;20062;-69
2022/06/15 01:48:16;;;;;;;3.67;1.67;;;17.60;95.10;;;;;;4098050;28;20031;-69
2022/06/15 01:50:22;;;;;;;;;;;17.60;94.60;;;;;;4102284;28;20039;-70
2022/06/15 01:52:28;;;;;;;3.60;1.50;;;17.60;94.80;;;;;;4099510;28;20016;-69
2022/06/15 01:54:32;;;;;;;3.97;1.70;;;17.60;94.90;;;;;;4099098;28;20566;-69
2022/06/15 01:56:46;;;;;;;3.47;1.50;;;17.50;95.10;;;;;;4097408;28;20027;-69
2022/06/15 01:58:54;;;;;;;3.75;1.63;;;17.50;95.00;;;;;;4097329;28;20031;-69
2022/06/15 02:01:22;;;;;;;3.85;1.58;;;17.50;94.90;;;;;;4095494;28;20031;-69
2022/06/15 02:03:28;;;;;;;3.70;1.60;;;17.50;95.50;;;;;;4079807;28;20027;-69
2022/06/15 02:05:53;;;;;;;3.13;1.48;;;17.40;95.30;;;;;;4098749;28;20574;-69
2022/06/15 02:08:07;;;;;;;4.07;1.30;;;17.40;95.60;;;;;;4096214;28;20035;-69
2022/06/15 02:10:43;;;;;;;5.93;1.90;;;17.40;96.20;;;;;;4097572;28;20414;-71
2022/06/15 02:12:56;;;;;;;4.20;1.70;;;17.30;95.50;;;;;;4095990;28;20031;-69
2022/06/15 02:14:59;;;;;;;5.10;1.63;;;17.30;95.40;;;;;;4098493;28;20036;-69
2022/06/15 02:17:04;;;;;;;4.13;1.70;;;17.30;95.50;;;;;;4098391;28;20438;-69
2022/06/15 02:19:09;;;;;;;5.38;1.92;;;17.30;95.80;;;;;;4098953;28;20118;-69
2022/06/15 02:21:13;;;;;;;3.85;1.83;;;17.30;95.60;;;;;;4097375;28;20043;-69
2022/06/15 02:23:16;;;;;;;3.85;1.50;;;17.30;95.60;;;;;;4098701;28;20106;-69
2022/06/15 02:25:20;;;;;;;4.72;1.90;;;17.20;95.50;;;;;;4098044;28;20031;-70
2022/06/15 02:27:25;;;;;;;3.67;1.60;;;17.20;95.70;;;;;;4097873;28;20035;-69
2022/06/15 02:29:28;;;;;;;5.93;1.88;;;17.20;95.80;;;;;;4097516;28;20035;-69
2022/06/15 02:31:28;;;;;;;3.95;1.52;;;17.20;95.70;;;;;;4097634;28;20094;-69
2022/06/15 02:33:32;;;;;;;3.03;1.52;;;17.20;95.70;;;;;;4099262;28;20490;-69
2022/06/15 02:35:33;;;;;;;5.90;1.85;;;17.10;95.60;;;;;;4098130;28;20031;-69
2022/06/15 02:37:34;;;;;;;3.03;1.83;;;17.10;95.90;;;;;;4098346;28;20090;-69
2022/06/15 02:39:34;;;;;;;4.82;2.00;;;17.10;96.10;;;;;;4097114;28;20050;-69
2022/06/15 02:41:36;;;;;;;5.95;1.83;;;17.10;96.20;;;;;;4096845;28;20039;-68
2022/06/15 02:43:38;;;;;;;3.05;1.65;;;17.10;96.20;;;;;;4098399;28;20035;-69
2022/06/15 02:45:39;;;;;;;;;;;17.10;96.10;;;;;;4098400;28;20039;-69
2022/06/15 02:47:42;;;;;;;3.92;1.52;;;17.00;96.10;;;;;;4097617;28;19914;-69
2022/06/15 02:49:44;;;;;;;6.07;2.05;;;17.00;96.20;;;;;;4096927;28;20038;-69
2022/06/15 02:51:56;;;;;;;2.53;1.63;;;17.00;96.40;;;;;;4095125;28;20031;-69
2022/06/15 02:54:02;;;;;;;3.30;1.60;;;16.90;96.30;;;;;;4097074;28;20043;-69
2022/06/15 02:56:05;;;;;;;1.85;1.38;;;16.90;96.80;;;;;;4097594;28;20035;-69
2022/06/15 02:58:08;;;;;;;3.55;1.65;;;16.80;96.80;;;;;;4096926;28;20491;-69
2022/06/15 03:00:08;;;;;;;;;;;16.80;97.10;;;;;;4096941;28;20027;-69
2022/06/15 03:02:09;;;;;;;3.83;1.85;;;16.80;97.00;;;;;;4099751;28;19975;-69
2022/06/15 03:04:10;;;;;;;6.35;1.92;;;16.80;96.90;;;;;;4099541;28;20035;-69
2022/06/15 03:06:13;;;;;;;5.75;1.80;;;16.70;97.00;;;;;;4097591;28;20039;-69
2022/06/15 03:08:14;;;;;;;6.20;2.40;;;16.70;97.10;;;;;;4096726;28;20031;-69
2022/06/15 03:10:15;;;;;;;5.70;1.70;;;16.70;97.30;;;;;;4096515;28;20038;-70
2022/06/15 03:12:15;;;;;;;3.53;1.98;;;16.70;97.50;;;;;;4104372;28;20098;-69
2022/06/15 03:14:16;;;;;;;4.78;1.70;;;16.60;97.00;;;;;;4099474;28;20039;-69
2022/06/15 03:16:18;;;;;;;4.80;2.08;;;16.60;97.10;;;;;;4096944;28;20038;-69
2022/06/15 03:18:18;;;;;;;4.78;1.92;;;16.60;97.40;;;;;;4096349;28;20106;-69
2022/06/15 03:20:19;;;;;;;2.75;1.75;;;16.60;98.60;;;;;;4096302;28;20399;-69
2022/06/15 03:22:20;;;;;;;5.13;2.13;;;16.60;98.40;;;;;;4095986;28;20388;-69
2022/06/15 03:24:21;;;;;;;3.88;1.95;;;16.60;98.20;;;;;;4097336;28;20142;-69
2022/06/15 03:26:21;;;;;;;4.32;1.90;;;16.50;98.30;;;;;;4097080;28;20402;-69
2022/06/15 03:28:23;;;;;;;4.63;2.25;;;16.50;98.30;;;;;;4096301;28;20033;-69
2022/06/15 03:30:23;;;;;;;4.05;2.00;;;16.50;98.30;;;;;;4097298;28;20109;-69
2022/06/15 03:32:24;;;;;;;3.75;1.88;;;16.50;98.90;;;;;;4097074;28;20407;-69
2022/06/15 03:34:24;;;;;;;4.55;2.10;;;16.40;98.80;;;;;;4097287;28;20039;-69
2022/06/15 03:36:25;;;;;;;3.83;2.13;;;16.40;98.80;;;;;;4096576;28;20058;-69
2022/06/15 03:38:28;;;;;;;3.92;1.88;;;16.40;99.00;;;;;;4096053;28;20046;-69
2022/06/15 03:40:29;;;;;;;5.63;2.20;;;16.30;98.80;;;;;;4095826;28;20040;-69
2022/06/15 03:42:30;;;;;;;4.82;2.10;;;16.20;99.30;;;;;;4096982;28;20078;-69
2022/06/15 03:44:30;;;;;;;6.47;1.85;;;16.30;99.80;;;;;;4096428;28;20039;-69
2022/06/15 03:46:31;;;;;;;5.72;2.47;;;16.20;99.70;;;;;;4096861;28;20059;-69
2022/06/15 03:48:32;;;;;;;5.82;2.25;;;16.30;99.70;;;;;;4095925;28;20031;-69
2022/06/15 03:50:33;;;;;;;6.65;2.40;;;16.30;99.90;;;;;;4096068;28;20039;-69
2022/06/15 03:52:34;;;;;;;7.53;2.25;;;16.30;99.90;;;;;;4096945;28;20049;-69
2022/06/15 03:54:35;;;;;;;3.22;1.88;;;16.30;99.90;;;;;;4096854;28;20457;-69
2022/06/15 03:56:44;;;;;;;5.78;1.98;;;16.30;99.90;;;;;;4097001;28;20053;-68
2022/06/15 03:58:46;;;;;;;4.07;2.22;;;16.30;99.90;;;;;;4092617;28;20221;-69
2022/06/15 04:00:47;;;;;;;4.22;1.80;;;16.30;99.90;;;;;;4082594;29;20076;-69
2022/06/15 04:02:49;;;;;;;5.27;1.87;;;16.30;99.90;;;;;;4093681;28;20498;-69
2022/06/15 04:04:49;;;;;;;4.50;1.75;;;16.40;99.90;;;;;;4094669;28;20039;-69
2022/06/15 04:06:50;;;;;;;5.63;2.28;;;16.30;99.90;;;;;;4095013;28;20039;-69
2022/06/15 04:08:52;;;;;;;5.03;2.03;;;16.30;99.90;;;;;;4080099;29;20035;-69
2022/06/15 04:10:53;;;;;;;3.78;1.88;;;16.40;99.90;;;;;;4095824;28;20042;-69
2022/06/15 04:12:53;;;;;;;4.45;2.53;;;16.40;99.90;;;;;;4095892;28;20035;-69
2022/06/15 04:14:54;;;;;;;7.90;2.42;;;16.40;99.90;;;;;;4096662;28;20118;-68
2022/06/15 04:16:56;;;;;;;4.90;2.00;;;16.40;99.90;;;;;;4088467;28;20035;-69
2022/06/15 04:19:02;;;;;;;3.53;1.85;;;16.40;99.90;;;;;;4092400;28;20040;-69
2022/06/15 04:21:02;;;;;;;3.47;1.80;;;16.40;99.90;;;;;;4083327;28;20039;-69
2022/06/15 04:23:09;;;;;;;5.63;2.10;;;16.40;99.90;;;;;;4095733;28;20434;-69
2022/06/15 04:25:10;;;;;;;4.88;2.08;;;16.40;99.90;;;;;;4093367;28;20035;-71
2022/06/15 04:27:14;;;;;;;8.77;2.72;;;16.40;99.90;;;;;;4094361;28;20047;-69
2022/06/15 04:29:16;;;;;;;4.47;1.90;;;16.40;99.90;;;;;;4095032;28;20040;-69
2022/06/15 04:31:17;;;;;;;5.83;2.00;;;16.40;99.90;;;;;;4093449;28;20042;-69
2022/06/15 04:33:17;;;;;;;9.43;2.30;;;16.40;99.90;;;;;;4096110;28;20898;-69
2022/06/15 04:35:18;;;;;;;5.57;2.10;;;16.40;99.90;;;;;;4095903;28;20035;-70
2022/06/15 04:37:19;;;;;;;5.25;2.03;;;16.40;99.90;;;;;;4095485;28;20032;-69
2022/06/15 04:39:19;;;;;;;8.52;2.28;;;16.40;99.90;;;;;;4094336;28;20463;-69
2022/06/15 04:41:20;;;;;;;6.70;2.22;;;16.50;99.90;;;;;;4095258;28;20043;-69
2022/06/15 04:43:20;;;;;;;5.07;1.85;;;16.50;99.90;;;;;;4096322;28;20043;-69
2022/06/15 04:45:22;;;;;;;6.03;2.15;;;16.50;99.90;;;;;;4095004;28;20044;-69
2022/06/15 04:47:23;;;;;;;3.97;2.13;;;16.50;99.90;;;;;;4097838;28;20337;-69
2022/06/15 04:49:23;;;;;;;7.45;2.47;;;16.50;99.90;;;;;;4094701;28;20039;-69
2022/06/15 04:51:26;;;;;;;5.93;2.33;;;16.50;99.90;;;;;;4094888;28;20134;-69
2022/06/15 04:53:26;;;;;;;;;;;16.50;99.90;;;;;;4096594;28;20049;-69
2022/06/15 04:55:29;;;;;;;5.35;2.13;;;16.50;99.90;;;;;;4095231;28;20358;-69
2022/06/15 04:57:29;;;;;;;6.43;2.80;;;16.50;99.90;;;;;;4096424;28;20067;-70
2022/06/15 04:59:30;;;;;;;5.30;2.40;;;16.50;99.90;;;;;;4081439;29;20031;-69
2022/06/15 05:01:31;;;;;;;9.27;2.97;;;16.40;99.90;;;;;;4094787;28;20513;-69
2022/06/15 05:03:32;;;;;;;5.22;2.58;;;16.40;99.90;;;;;;4096194;28;20395;-69
2022/06/15 05:05:33;;;;;;;8.07;2.33;;;16.40;99.90;;;;;;4095781;28;20023;-72
2022/06/15 05:07:33;;;;;;;9.82;2.55;;;16.50;99.90;;;;;;4096550;28;20049;-72
2022/06/15 05:09:34;;;;;;;5.82;2.63;;;16.50;99.90;;;;;;4090343;28;20170;-73
2022/06/15 05:11:35;;;;;;;6.95;2.30;;;16.50;99.90;;;;;;4092910;28;20126;-73
2022/06/15 05:13:35;;;;;;;5.05;2.45;;;16.50;99.90;;;;;;4094095;28;20491;-73
2022/06/15 05:15:38;;;;;;;5.15;2.30;;;16.50;99.90;;;;;;4095354;28;20051;-73
2022/06/15 05:17:41;;;;;;;4.18;2.05;;;16.50;99.90;;;;;;4082206;29;20043;-72
2022/06/15 05:19:41;;;;;;;3.85;2.22;;;16.50;99.90;;;;;;4095829;28;20054;-72
2022/06/15 05:21:43;;;;;;;5.15;2.45;;;16.60;99.90;;;;;;4094986;28;20028;-72
2022/06/15 05:23:44;;;;;;;8.63;3.50;;;16.60;99.90;;;;;;4093428;28;20050;-73
2022/06/15 05:25:45;;;;;;;6.40;2.60;;;16.60;99.90;;;;;;4094568;28;20035;-73
2022/06/15 05:27:46;;;;;;;4.72;2.30;;;16.60;99.90;;;;;;4094192;28;20450;-73
2022/06/15 05:29:46;;;;;;;8.38;2.67;;;16.60;99.90;;;;;;4095435;28;20406;-73
2022/06/15 05:31:48;;;;;;;4.47;2.40;;;16.60;99.90;;;;;;4092726;28;20039;-72
2022/06/15 05:33:53;;;;;;;7.20;2.87;;;16.70;99.90;;;;;;4092111;28;20035;-72
2022/06/15 05:36:04;;;;;;;6.70;2.72;;;16.70;99.90;;;;;;4092307;28;20050;-72
2022/06/15 05:38:04;;;;;;;6.80;2.53;;;16.80;99.90;;;;;;4096881;28;20027;-72
2022/06/15 05:40:06;;;;;;;7.63;2.67;;;16.80;99.90;;;;;;4095479;28;20042;-72
2022/06/15 05:42:07;;;;;;;5.47;2.55;;;16.90;99.90;;;;;;4096509;28;20156;-72
2022/06/15 05:46:20;;;;;;;5.43;2.20;;;17.00;99.90;;;;;;4091783;28;20043;-72
2022/06/15 05:48:20;;;;;;;5.63;2.58;;;17.30;99.90;;;;;;4093067;28;20482;-72
2022/06/15 05:50:21;;;;;;;7.85;2.85;;;17.50;99.90;;;;;;4094887;28;21237;-72
2022/06/15 05:52:22;;;;;;;6.38;2.33;;;17.80;99.90;;;;;;4094923;28;20024;-72
2022/06/15 05:54:22;;;;;;;4.13;2.40;;;18.30;99.90;;;;;;4091497;28;20051;-72
2022/06/15 05:56:23;;;;;;;6.95;2.50;;;18.70;99.90;;;;;;4096193;28;20090;-72
2022/06/15 05:58:24;;;;;;;5.97;2.70;;;19.10;99.90;;;;;;4094947;28;20027;-72
2022/06/15 06:00:25;;;;;;;5.63;2.22;;;19.50;99.90;;;;;;4095815;28;20039;-72
2022/06/15 06:02:27;;;;;;;7.47;2.65;;;19.90;99.70;;;;;;4096633;28;20473;-73
2022/06/15 06:04:28;;;;;;;5.90;2.33;;;20.10;98.50;;;;;;4097216;28;20035;-72
2022/06/15 06:06:30;;;;;;;6.95;2.67;;;20.60;97.80;;;;;;4095787;28;20031;-73
2022/06/15 06:08:31;;;;;;;8.07;2.60;;;20.80;97.20;;;;;;4096709;28;20495;-71
2022/06/15 06:10:31;;;;;;;13.63;3.40;;;21.20;95.60;;;;;;4096180;28;20035;-72
2022/06/15 06:12:32;;;;;;;7.28;2.90;;;21.10;94.70;;;;;;4096121;28;20082;-73
2022/06/15 06:14:32;;;;;;;8.38;2.90;;;21.40;94.60;;;;;;4096117;28;20053;-73
2022/06/15 06:16:33;;;;;;;7.65;3.15;;;21.50;94.00;;;;;;4095969;28;20035;-73
2022/06/15 06:18:34;;;;;;;8.45;2.83;;;21.80;94.30;;;;;;4095697;28;20376;-73
2022/06/15 06:20:34;;;;;;;8.45;2.95;;;22.10;93.50;;;;;;4095511;28;20515;-73
2022/06/15 06:22:35;;;;;;;4.93;2.60;;;22.40;92.80;;;;;;4097854;28;20118;-72
2022/06/15 06:24:35;;;;;;;6.45;3.22;;;22.70;93.10;;;;;;4094799;28;20720;-73
2022/06/15 06:26:36;;;;;;;6.90;3.15;;;22.90;91.50;;;;;;4080288;29;20051;-73
2022/06/15 06:28:38;;;;;;;8.95;3.05;;;22.80;91.00;;;;;;4082395;29;20085;-73
2022/06/15 06:30:39;;;;;;;7.78;2.97;;;22.70;91.00;;;;;;4098364;28;20103;-73
2022/06/15 06:32:39;;;;;;;8.90;2.92;;;22.90;93.00;;;;;;4095485;28;20031;-72
2022/06/15 06:34:40;;;;;;;6.63;2.60;;;23.00;89.60;;;;;;4098385;28;20139;-74
2022/06/15 06:36:44;;;;;;;4.40;2.05;;;23.00;91.10;;;;;;4098526;28;20031;-73
2022/06/15 06:38:45;;;;;;;5.50;1.98;;;23.30;92.50;;;;;;4099141;28;20035;-73
2022/06/15 06:40:46;;;;;;;7.85;2.75;;;23.40;91.50;;;;;;4101011;28;20031;-73
2022/06/15 06:42:46;;;;;;;6.10;2.53;;;23.50;90.50;;;;;;4098856;28;20058;-73
2022/06/15 06:44:47;;;;;;;7.50;2.80;;;23.50;88.30;;;;;;4089932;29;20365;-73
2022/06/15 06:46:49;;;;;;;6.68;2.53;;;23.50;87.20;;;;;;4080399;29;20495;-73
2022/06/15 06:48:50;;;;;;;;;;;23.50;87.50;;;;;;4100066;28;20042;-73
2022/06/15 06:50:52;;;;;;;6.70;2.47;;;23.30;86.20;;;;;;4098268;28;20294;-73
2022/06/15 06:52:53;;;;;;;8.15;2.55;;;23.20;87.60;;;;;;4097720;28;20106;-73
2022/06/15 06:54:54;;;;;;;4.47;2.13;;;23.30;90.00;;;;;;4088006;28;20469;-74
2022/06/15 06:56:54;;;;;;;8.48;2.80;;;23.50;90.20;;;;;;4085484;28;20035;-73
2022/06/15 06:58:55;;;;;;;6.65;2.63;;;23.30;87.00;;;;;;4084469;28;20118;-73
2022/06/15 07:00:56;;;;;;;5.30;2.20;;;23.40;86.30;;;;;;4086437;28;20506;-73
2022/06/15 07:03:01;;;;;;;8.02;2.60;;;23.20;85.70;;;;;;4082935;28;20035;-73
2022/06/15 07:05:02;;;;;;;7.20;2.33;;;23.20;85.90;;;;;;4087445;28;20514;-74
2022/06/15 07:07:03;;;;;;;8.88;2.65;;;23.30;87.20;;;;;;4085387;28;20031;-73
2022/06/15 07:09:04;;;;;;;5.60;2.50;;;23.50;90.60;;;;;;4083829;28;20123;-72
2022/06/15 07:11:15;;;;;;;6.95;2.58;;;23.50;88.40;;;;;;4081982;29;20526;-72
2022/06/15 07:13:16;;;;;;;6.00;2.38;;;23.60;87.60;;;;;;4083208;28;20392;-73
2022/06/15 07:15:17;;;;;;;6.82;2.85;;;23.50;85.50;;;;;;4084166;28;20032;-73
2022/06/15 07:17:17;;;;;;;7.68;2.35;;;23.50;85.20;;;;;;4090259;28;20031;-72
2022/06/15 07:19:18;;;;;;;5.20;2.40;;;23.60;87.40;;;;;;4087163;28;20106;-72
2022/06/15 07:21:22;;;;;;;5.35;2.22;;;23.50;88.80;;;;;;4087051;28;20036;-72
2022/06/15 07:23:23;;;;;;;7.88;2.53;;;23.60;86.10;;;;;;4088566;28;20067;-72
2022/06/15 07:25:24;;;;;;;6.28;2.65;;;23.70;90.10;;;;;;4080536;28;20043;-71
2022/06/15 07:27:25;;;;;;;5.90;2.42;;;23.60;89.20;;;;;;4087240;28;20050;-72
2022/06/15 07:29:26;;;;;;;7.23;2.80;;;23.80;85.60;;;;;;4087613;28;20038;-71
2022/06/15 07:31:31;;;;;;;5.75;2.38;;;23.80;86.20;;;;;;4082979;28;20063;-72
2022/06/15 07:33:33;;;;;;;7.35;2.60;;;23.90;87.80;;;;;;4085368;28;20043;-72
2022/06/15 07:35:36;;;;;;;;;;;24.10;89.60;;;;;;4087436;28;20062;-72
2022/06/15 07:37:36;;;;;;;8.02;2.60;;;24.00;85.30;;;;;;4084137;29;20235;-71
2022/06/15 07:39:38;;;;;;;5.32;2.17;;;24.10;87.50;;;;;;4081742;28;20091;-72
2022/06/15 07:41:39;;;;;;;5.00;2.13;;;24.20;87.50;;;;;;4083364;28;20039;-71
2022/06/15 07:43:39;;;;;;;5.28;2.40;;;24.20;88.50;;;;;;4087603;28;20449;-73
2022/06/15 07:45:40;;;;;;;7.15;2.80;;;24.30;84.90;;;;;;4090108;28;20039;-72
2022/06/15 07:50:00;;;;;;;7.03;3.17;;;24.50;84.80;;;;;;4083724;28;20047;-72
2022/06/15 07:52:04;;;;;;;7.57;2.47;;;24.40;82.90;;;;;;4089613;28;20035;-72
2022/06/15 07:54:11;;;;;;;8.43;2.38;;;24.50;85.00;;;;;;4090298;28;20066;-71
2022/06/15 07:56:11;;;;;;;6.75;2.53;;;24.50;87.50;;;;;;4085661;28;20398;-72
2022/06/15 07:58:13;;;;;;;8.13;2.90;;;24.60;84.20;;;;;;4086905;28;20123;-72
2022/06/15 08:00:14;;;;;;;8.05;2.53;;;24.80;87.20;;;;;;4090200;28;20038;-73
2022/06/15 08:02:16;;;;;;;9.00;3.00;;;24.70;80.50;;;;;;4083768;28;20036;-72
2022/06/15 08:04:17;;;;;;;8.03;3.17;;;24.70;81.30;;;;;;4087716;28;20279;-71
2022/06/15 08:06:18;;;;;;;6.95;2.50;;;24.70;83.10;;;;;;4086390;28;20343;-71
2022/06/15 08:08:23;;;;;;;5.88;2.70;;;24.60;81.10;;;;;;4079948;28;20051;-72
2022/06/15 08:10:26;;;;;;;7.88;2.70;;;24.30;81.60;;;;;;4080612;28;20032;-72
2022/06/15 08:12:27;;;;;;;4.28;1.85;;;24.30;82.80;;;;;;4088367;28;20027;-71
2022/06/15 08:14:29;;;;;;;3.28;1.67;;;24.30;83.20;;;;;;4087023;28;20077;-71
2022/06/15 08:16:30;;;;;;;4.33;2.20;;;24.50;86.10;;;;;;4089916;28;20039;-71
2022/06/15 08:18:34;;;;;;;5.32;1.73;;;24.50;84.50;;;;;;4082328;29;20739;-71
2022/06/15 08:20:41;;;;;;;6.82;2.47;;;24.60;82.20;;;;;;4084403;28;20107;-71
2022/06/15 08:22:45;;;;;;;4.50;1.90;;;24.40;81.70;;;;;;4087427;28;20040;-72
2022/06/15 08:24:46;;;;;;;7.13;2.40;;;24.50;85.80;;;;;;4084141;29;20605;-71
2022/06/15 08:26:47;;;;;;;3.80;1.98;;;24.50;83.10;;;;;;4089852;29;20042;-71
2022/06/15 08:28:52;;;;;;;7.32;2.63;;;24.40;80.80;;;;;;4082180;28;20506;-72
2022/06/15 08:30:54;;;;;;;5.90;2.08;;;24.30;81.80;;;;;;4081076;29;20038;-72
2022/06/15 08:32:54;;;;;;;3.85;1.67;;;24.50;85.50;;;;;;4089101;28;20101;-71
2022/06/15 08:34:55;;;;;;;5.43;1.80;;;24.70;87.80;;;;;;4086983;28;20039;-71
2022/06/15 08:36:56;;;;;;;4.75;1.80;;;24.80;84.60;;;;;;4083977;28;20036;-72
2022/06/15 08:38:58;;;;;;;7.28;1.85;;;24.80;81.00;;;;;;4092703;28;20566;-72
2022/06/15 08:41:13;;;;;;;5.13;2.17;;;24.50;79.60;;;;;;4091031;28;20155;-70
2022/06/15 08:43:46;;;;;;;5.30;1.90;;;24.20;78.50;;;;;;4092495;28;20051;-71
2022/06/15 08:45:51;;;;;;;4.18;1.70;;;24.30;81.00;;;;;;4088209;28;20050;-71
2022/06/15 08:48:07;;;;;;;4.13;1.50;;;24.40;81.80;;;;;;4089114;28;20115;-71
2022/06/15 08:50:33;;;;;;;3.35;1.73;;;24.30;81.00;;;;;;4086029;28;20028;-72
2022/06/15 08:52:51;;;;;;;6.13;1.60;;;24.30;78.30;;;;;;4083173;28;20396;-71
2022/06/15 08:55:11;;;;;;;4.10;1.52;;;24.30;78.40;;;;;;4091985;28;20606;-72
2022/06/15 08:57:19;;;;;;;4.05;1.52;;;24.40;83.10;;;;;;4094805;28;20031;-71
2022/06/15 08:59:44;;;;;;;3.08;1.58;;;24.70;85.40;;;;;;4095298;28;20447;-72
2022/06/15 09:02:12;;;;;;;4.10;1.60;;;24.80;79.20;;;;;;4093701;28;20542;-72
2022/06/15 09:04:39;;;;;;;4.43;1.50;;;25.00;82.70;;;;;;4092670;28;20039;-72
2022/06/15 09:06:46;;;;;;;4.13;1.50;;;25.00;78.70;;;;;;4093613;28;20047;-72
2022/06/15 09:09:04;;;;;;;3.25;1.38;;;25.10;79.80;;;;;;4096761;28;20042;-71
2022/06/15 09:11:44;;;;;;;4.85;1.63;;;25.10;77.70;;;;;;4096370;28;20070;-72
2022/06/15 09:14:22;;;;;;;3.88;1.67;;;25.20;80.60;;;;;;4095773;28;20062;-72
2022/06/15 09:16:32;;;;;;;5.50;1.95;;;25.10;76.60;;;;;;4079989;29;20040;-71
2022/06/15 09:18:50;;;;;;;3.15;1.50;;;25.30;81.90;;;;;;4096012;28;20031;-71
2022/06/15 09:20:56;;;;;;;6.32;1.42;;;25.40;84.20;;;;;;4095112;28;20085;-71
2022/06/15 09:23:02;;;;;;;6.35;1.77;;;25.50;79.10;;;;;;4094780;28;20082;-71
2022/06/15 09:25:11;;;;;;;6.00;1.63;;;25.50;82.70;;;;;;4096252;28;20027;-71
2022/06/15 09:27:19;;;;;;;3.40;1.80;;;25.70;84.10;;;;;;4081464;29;20039;-72
2022/06/15 09:29:31;;;;;;;8.07;1.92;;;25.80;82.90;;;;;;4096024;28;20035;-71
2022/06/15 09:31:39;;;;;;;4.60;1.60;;;25.90;81.60;;;;;;4094577;28;20035;-71
2022/06/15 09:33:49;;;;;;;11.65;1.40;;;26.00;82.10;;;;;;4096829;28;20067;-71
2022/06/15 09:36:02;;;;;;;3.22;1.30;;;26.10;81.70;;;;;;4095137;28;20394;-71
2022/06/15 09:38:05;;;;;;;1.98;1.27;;;26.00;76.90;;;;;;4092410;28;20501;-72
2022/06/15 09:40:08;;;;;;;5.85;1.90;;;26.10;79.60;;;;;;4081135;29;20080;-71
2022/06/15 09:42:08;;;;;;;;;;;26.00;75.40;;;;;;4096287;28;20491;-71
2022/06/15 09:44:22;;;;;;;5.57;2.15;;;25.90;72.30;;;;;;4096172;28;19929;-71
2022/06/15 09:46:45;;;;;;;3.47;1.50;;;25.90;73.50;;;;;;4094069;28;20152;-71
2022/06/15 09:49:06;;;;;;;5.55;2.67;;;25.90;75.30;;;;;;4093442;28;20027;-72
2022/06/15 09:51:35;;;;;;;3.47;1.60;;;25.90;75.10;;;;;;4091178;28;20027;-72
2022/06/15 09:54:02;;;;;;;4.80;1.63;;;26.10;76.00;;;;;;4068617;28;20109;-72
2022/06/15 09:56:11;;;;;;;5.65;2.05;;;26.20;78.10;;;;;;4095666;28;20027;-72
2022/06/15 09:58:16;;;;;;;9.15;1.52;;;26.30;77.60;;;;;;4095700;28;20024;-72
2022/06/15 10:00:17;;;;;;;2.83;1.38;;;26.40;77.00;;;;;;4095314;28;20040;-72
2022/06/15 10:02:28;;;;;;;4.90;1.55;;;26.50;74.30;;;;;;4095519;28;20431;-72
2022/06/15 10:04:31;;;;;;;4.88;1.45;;;26.50;75.30;;;;;;4095624;28;20398;-72
2022/06/15 10:06:42;;;;;;;4.97;1.63;;;26.50;73.80;;;;;;4098492;28;20545;-72
2022/06/15 10:08:42;;;;;;;3.92;1.75;;;26.50;72.50;;;;;;4096366;28;20035;-73
2022/06/15 10:10:51;;;;;;;9.43;1.88;;;26.60;75.10;;;;;;4098141;28;20114;-72
2022/06/15 10:13:02;;;;;;;5.07;1.63;;;26.60;76.00;;;;;;4097793;28;20434;-72
2022/06/15 10:15:07;;;;;;;6.60;2.45;;;26.50;70.60;;;;;;4097076;28;20063;-72
2022/06/15 10:17:31;;;;;;;6.40;1.90;;;26.60;69.60;;;;;;4098916;28;20043;-72
2022/06/15 10:19:34;;;;;;;5.18;2.00;;;26.50;69.30;;;;;;4096043;28;20039;-72
2022/06/15 10:21:36;;;;;;;3.42;1.58;;;26.30;66.70;;;;;;4097833;28;20039;-72
2022/06/15 10:23:46;;;;;;;;;;;26.30;68.70;;;;;;4102330;28;20039;-72
2022/06/15 10:25:55;;;;;;;6.72;2.17;;;26.20;67.30;;;;;;4098395;28;19978;-71
2022/06/15 10:28:31;;;;;;;5.78;1.60;;;26.00;69.50;;;;;;4098956;28;20491;-72
2022/06/15 10:30:32;;;;;;;4.68;1.73;;;26.10;68.80;;;;;;4090653;28;20027;-72
2022/06/15 10:32:35;;;;;;;2.03;1.40;;;26.20;69.20;;;;;;4097879;28;20459;-72
2022/06/15 10:34:42;;;;;;;4.75;2.08;;;26.30;69.20;;;;;;4098599;28;20050;-72
2022/06/15 10:36:42;;;;;;;4.68;2.17;;;26.30;68.90;;;;;;4099827;28;20045;-72
2022/06/15 10:38:49;;;;;;;3.70;1.30;;;26.20;66.90;;;;;;4101134;28;20134;-72
2022/06/15 10:43:32;;;;;;;6.30;1.73;;;26.30;67.90;;;;;;4096612;28;20035;-72
2022/06/15 10:45:37;;;;;;;5.47;1.55;;;26.30;68.90;;;;;;4094387;28;20032;-72
2022/06/15 10:47:48;;;;;;;2.38;1.60;;;26.40;71.90;;;;;;4086359;28;20046;-72
2022/06/15 10:49:54;;;;;;;3.80;1.50;;;26.50;69.20;;;;;;4099419;28;20035;-72
2022/06/15 10:51:55;;;;;;;4.07;1.90;;;26.60;74.70;;;;;;4099047;28;20054;-72
2022/06/15 10:54:19;;;;;;;3.20;1.77;;;26.70;76.20;;;;;;4103002;28;20384;-71
2022/06/15 11:03:43;;;;;;;3.60;1.80;;;27.00;75.10;;;;;;4097072;28;20509;-72
2022/06/15 11:05:46;;;;;;;5.03;2.20;;;26.90;73.90;;;;;;4098099;28;20118;-72
2022/06/15 11:07:53;;;;;;;8.05;2.58;;;26.90;73.80;;;;;;4095765;28;20514;-72